createdAt,value
2023-08-11T00:03:50.996Z,100718.16
2023-08-11T00:08:13.050Z,100712.69
2023-08-11T00:12:34.856Z,100712.69
2023-08-11T00:16:58.216Z,100708.50
2023-08-11T00:21:20.271Z,100707.41
2023-08-11T00:25:42.126Z,100704.56
2023-08-11T00:30:04.773Z,100694.47
2023-08-11T00:34:28.305Z,100697.50
2023-08-11T00:38:50.065Z,100705.50
2023-08-11T00:43:11.955Z,100687.97
2023-08-11T00:47:34.605Z,100684.44
2023-08-11T00:51:58.421Z,100688.53
2023-08-11T00:56:22.627Z,100690.13
2023-08-11T01:00:45.397Z,100675.56
2023-08-11T01:05:07.742Z,100679.38
2023-08-11T01:09:38.601Z,100677.22
2023-08-11T01:14:04.791Z,100681.69
2023-08-11T01:18:27.900Z,100674.75
2023-08-11T01:22:54.968Z,100662.78
2023-08-11T01:27:18.763Z,100667.44
2023-08-11T01:31:40.785Z,100667.56
2023-08-11T01:36:02.828Z,100662.13
2023-08-11T01:40:25.045Z,100658.44
2023-08-11T01:44:49.693Z,100655.19
2023-08-11T01:49:13.682Z,100648.63
2023-08-11T01:53:36.257Z,100654.78
2023-08-11T01:57:59.783Z,100647.56
2023-08-11T02:02:23.623Z,100650.94
2023-08-11T02:06:45.465Z,100642.09
2023-08-11T02:11:07.388Z,100636.69
2023-08-11T02:15:29.268Z,100640.78
2023-08-11T02:19:52.516Z,100629.06
2023-08-11T02:24:14.440Z,100640.06
2023-08-11T02:28:36.495Z,100643.06
2023-08-11T02:32:58.351Z,100649.06
2023-08-11T02:37:21.774Z,100641.31
2023-08-11T02:41:44.071Z,100638.72
2023-08-11T02:46:06.129Z,100641.56
2023-08-11T02:50:28.220Z,100638.56
2023-08-11T02:54:51.567Z,100637.63
2023-08-11T02:59:13.926Z,100632.88
2023-08-11T03:03:36.102Z,100625.88
2023-08-11T03:07:58.260Z,100633.03
2023-08-11T03:12:21.488Z,100633.28
2023-08-11T03:16:43.645Z,100621.53
2023-08-11T03:21:17.873Z,100626.00
2023-08-11T03:25:42.269Z,100625.59
2023-08-11T03:30:07.324Z,100619.34
2023-08-11T03:34:29.691Z,100621.53
2023-08-11T03:38:52.241Z,100626.56
2023-08-11T03:43:14.438Z,100631.59
2023-08-11T03:47:38.150Z,100634.84
2023-08-11T03:52:00.666Z,100633.13
2023-08-11T03:56:22.569Z,100633.13
2023-08-11T04:00:44.780Z,100636.34
2023-08-11T04:05:08.818Z,100632.66
2023-08-11T04:09:30.777Z,100628.41
2023-08-11T04:13:53.040Z,100627.31
2023-08-11T04:18:14.825Z,100634.75
2023-08-11T04:22:39.455Z,100625.25
2023-08-11T04:31:39.679Z,100631.06
2023-08-11T04:36:01.547Z,100623.78
2023-08-11T04:40:24.776Z,100629.94
2023-08-11T04:44:46.828Z,100627.16
2023-08-11T04:49:08.676Z,100628.38
2023-08-11T04:53:31.358Z,100629.88
2023-08-11T04:57:54.825Z,100638.59
2023-08-11T05:02:16.684Z,100639.41
2023-08-11T05:06:40.324Z,100637.50
2023-08-11T05:11:02.214Z,100647.28
2023-08-11T05:15:25.524Z,100648.06
2023-08-11T05:19:47.794Z,100655.78
2023-08-11T05:24:09.852Z,100656.16
2023-08-11T05:28:31.965Z,100647.13
2023-08-11T05:32:55.645Z,100649.88
2023-08-11T05:37:17.815Z,100650.00
2023-08-11T05:41:40.354Z,100656.97
2023-08-11T05:46:03.426Z,100656.97
2023-08-11T05:50:28.085Z,100654.41
2023-08-11T05:54:51.617Z,100640.03
2023-08-11T05:59:13.670Z,100640.38
2023-08-11T06:03:37.110Z,100644.09
2023-08-11T06:08:06.726Z,100638.69
2023-08-11T06:12:29.480Z,100635.91
2023-08-11T06:16:51.499Z,100634.28
2023-08-11T06:21:14.171Z,100631.91
2023-08-11T06:25:37.980Z,100640.50
2023-08-11T06:29:59.884Z,100645.56
2023-08-11T06:34:23.084Z,100639.56
2023-08-11T06:38:45.103Z,100634.50
2023-08-11T06:43:12.496Z,100649.66
2023-08-11T06:47:35.458Z,100632.78
2023-08-11T06:51:57.293Z,100640.44
2023-08-11T06:56:19.383Z,100644.38
2023-08-11T07:00:42.778Z,100626.31
2023-08-11T07:05:06.113Z,100627.59
2023-08-11T07:09:29.533Z,100641.44
2023-08-11T07:13:51.636Z,100646.94
2023-08-11T07:18:19.600Z,100649.13
2023-08-11T07:22:41.785Z,100653.59
2023-08-11T07:27:04.274Z,100651.84
2023-08-11T07:31:26.159Z,100645.41
2023-08-11T07:35:49.529Z,100658.75
2023-08-11T07:40:12.092Z,100660.09
2023-08-11T07:44:35.431Z,100652.16
2023-08-11T07:48:57.385Z,100652.75
2023-08-11T07:53:20.596Z,100661.56
2023-08-11T07:57:42.535Z,100657.03
2023-08-11T08:02:06.216Z,100656.84
2023-08-11T08:06:28.110Z,100659.22
2023-08-11T08:10:51.626Z,100655.38
2023-08-11T08:15:14.723Z,100660.72
2023-08-11T08:19:36.979Z,100667.56
2023-08-11T08:23:59.821Z,100657.13
2023-08-11T08:28:23.159Z,100670.81
2023-08-11T08:32:45.544Z,100661.25
2023-08-11T08:37:08.069Z,100658.25
2023-08-11T08:41:32.461Z,100662.44
2023-08-11T08:45:57.614Z,100670.34
2023-08-11T08:50:22.531Z,100667.91
2023-08-11T08:54:45.639Z,100656.56
2023-08-11T08:59:09.365Z,100665.25
2023-08-11T09:03:36.044Z,100664.72
2023-08-11T09:07:59.140Z,100666.81
2023-08-11T09:12:21.332Z,100655.84
2023-08-11T09:16:43.880Z,100663.78
2023-08-11T09:21:14.498Z,100663.19
2023-08-11T09:25:37.578Z,100665.97
2023-08-11T09:29:59.442Z,100657.72
2023-08-11T09:34:24.396Z,100657.25
2023-08-11T09:38:51.590Z,100651.38
2023-08-11T09:43:16.178Z,100642.88
2023-08-11T09:47:38.569Z,100642.81
2023-08-11T09:52:03.249Z,100636.47
2023-08-11T09:56:30.358Z,100636.72
2023-08-11T10:00:59.097Z,100633.66
2023-08-11T10:05:31.791Z,100632.66
2023-08-11T10:09:53.841Z,100626.72
2023-08-11T10:14:21.597Z,100630.06
2023-08-11T10:18:44.979Z,100625.88
2023-08-11T10:23:08.723Z,100619.44
2023-08-11T10:27:32.481Z,100618.81
2023-08-11T10:31:57.320Z,100623.84
2023-08-11T10:36:23.535Z,100619.38
2023-08-11T10:40:45.652Z,100622.09
2023-08-11T10:45:09.570Z,100613.00
2023-08-11T10:49:34.274Z,100611.13
2023-08-11T10:53:58.980Z,100615.72
2023-08-11T10:58:23.923Z,100605.44
2023-08-11T11:02:49.011Z,100614.78
2023-08-11T11:07:14.390Z,100612.22
2023-08-11T11:11:37.046Z,100611.78
2023-08-11T11:16:02.136Z,100603.19
2023-08-11T11:20:28.103Z,100597.03
2023-08-11T11:24:55.090Z,100595.72
2023-08-11T11:29:20.769Z,100593.47
2023-08-11T11:33:43.314Z,100604.59
2023-08-11T11:38:05.247Z,100599.13
2023-08-11T11:42:30.479Z,100596.25
2023-08-11T11:46:54.947Z,100598.84
2023-08-11T11:51:19.410Z,100596.88
2023-08-11T11:55:45.041Z,100605.69
2023-08-11T12:00:10.662Z,100591.94
2023-08-11T12:04:38.057Z,100585.66
2023-08-11T12:09:02.044Z,100582.50
2023-08-11T12:13:23.845Z,100582.66
2023-08-11T12:17:48.769Z,100577.44
2023-08-11T12:22:14.811Z,100580.44
2023-08-11T12:26:36.615Z,100559.94
2023-08-11T12:30:58.509Z,100567.50
2023-08-11T12:35:22.125Z,100561.81
2023-08-11T12:39:46.119Z,100551.66
2023-08-11T12:44:08.021Z,100558.00
2023-08-11T12:48:29.851Z,100556.47
2023-08-11T12:52:52.989Z,100555.91
2023-08-11T12:57:17.432Z,100555.97
2023-08-11T13:01:40.435Z,100546.34
2023-08-11T13:06:02.308Z,100538.31
2023-08-11T13:10:25.542Z,100538.84
2023-08-11T13:14:50.050Z,100531.47
2023-08-11T13:19:14.374Z,100548.13
2023-08-11T13:23:36.779Z,100534.69
2023-08-11T13:28:02.621Z,100533.50
2023-08-11T13:32:24.736Z,100532.69
2023-08-11T13:36:47.302Z,100529.50
2023-08-11T13:41:09.532Z,100521.13
2023-08-11T13:45:32.994Z,100519.13
2023-08-11T13:49:55.057Z,100514.47
2023-08-11T13:54:16.995Z,100515.31
2023-08-11T13:58:39.327Z,100506.03
2023-08-11T14:03:02.582Z,100502.22
2023-08-11T14:07:32.266Z,100506.66
2023-08-11T14:11:55.305Z,100495.38
2023-08-11T14:16:18.146Z,100493.81
2023-08-11T14:20:41.454Z,100490.41
2023-08-11T14:25:03.903Z,100499.25
2023-08-11T14:29:25.971Z,100492.81
2023-08-11T14:33:48.391Z,100493.06
2023-08-11T14:38:11.685Z,100492.63
2023-08-11T14:42:33.556Z,100473.19
2023-08-11T14:46:55.789Z,100469.19
2023-08-11T14:51:18.423Z,100474.25
2023-08-11T14:55:42.219Z,100471.50
2023-08-11T15:00:06.286Z,100467.94
2023-08-11T15:04:28.405Z,100453.59
2023-08-11T15:08:50.483Z,100452.47
2023-08-11T15:13:16.875Z,100453.69
2023-08-11T15:17:39.322Z,100455.69
2023-08-11T15:22:01.207Z,100456.41
2023-08-11T15:26:23.035Z,100435.91
2023-08-11T15:30:46.683Z,100439.59
2023-08-11T15:35:09.817Z,100439.06
2023-08-11T15:39:31.928Z,100439.19
2023-08-11T15:43:54.175Z,100437.34
2023-08-11T15:48:17.806Z,100435.25
2023-08-11T15:52:39.726Z,100416.56
2023-08-11T15:57:02.106Z,100418.31
2023-08-11T16:01:24.389Z,100430.00
2023-08-11T16:05:48.014Z,100418.94
2023-08-11T16:10:11.476Z,100423.44
2023-08-11T16:14:33.795Z,100418.03
2023-08-11T16:18:55.734Z,100419.53
2023-08-11T16:23:18.979Z,100414.50
2023-08-11T16:27:41.553Z,100409.63
2023-08-11T16:32:03.755Z,100413.56
2023-08-11T16:36:25.783Z,100411.25
2023-08-11T16:40:49.226Z,100419.09
2023-08-11T16:45:11.424Z,100407.97
2023-08-11T16:49:33.366Z,100403.00
2023-08-11T16:53:56.710Z,100400.72
2023-08-11T16:58:20.342Z,100409.06
2023-08-11T17:02:42.808Z,100402.41
2023-08-11T17:07:04.957Z,100406.00
2023-08-11T17:11:27.875Z,100405.84
2023-08-11T17:15:51.097Z,100406.09
2023-08-11T17:20:13.221Z,100402.91
2023-08-11T17:24:35.378Z,100392.47
2023-08-11T17:28:57.320Z,100396.63
2023-08-11T17:33:20.855Z,100395.63
2023-08-11T17:37:43.143Z,100397.16
2023-08-11T17:42:07.197Z,100388.25
2023-08-11T17:46:32.297Z,100400.78
2023-08-11T17:50:55.605Z,100406.13
2023-08-11T17:55:19.973Z,100400.75
2023-08-11T17:59:42.170Z,100400.63
2023-08-11T18:04:07.939Z,100406.13
2023-08-11T18:08:32.049Z,100404.06
2023-08-11T18:12:53.977Z,100410.38
2023-08-11T18:17:16.161Z,100410.31
2023-08-11T18:21:39.172Z,100407.50
2023-08-11T18:26:03.927Z,100398.25
2023-08-11T18:30:25.897Z,100395.28
2023-08-11T18:34:47.938Z,100392.28
2023-08-11T18:39:10.029Z,100392.56
2023-08-11T18:43:33.221Z,100389.63
2023-08-11T18:47:57.686Z,100397.53
2023-08-11T18:52:20.047Z,100398.19
2023-08-11T18:56:49.284Z,100397.56
2023-08-11T19:01:13.010Z,100401.59
2023-08-11T19:05:35.287Z,100384.25
2023-08-11T19:09:58.904Z,100402.84
2023-08-11T19:14:21.125Z,100396.19
2023-08-11T19:18:47.134Z,100375.22
2023-08-11T19:23:09.246Z,100388.72
2023-08-11T19:27:32.113Z,100389.34
2023-08-11T19:31:54.030Z,100384.69
2023-08-11T19:36:19.559Z,100387.28
2023-08-11T19:40:44.780Z,100388.50
2023-08-11T19:45:07.753Z,100386.66
2023-08-11T19:49:32.779Z,100385.06
2023-08-11T19:53:55.853Z,100385.66
2023-08-11T19:58:18.962Z,100385.22
2023-08-11T20:02:42.222Z,100385.41
2023-08-11T20:07:04.178Z,100359.94
2023-08-11T20:11:27.804Z,100377.72
2023-08-11T20:15:57.300Z,100373.00
2023-08-11T20:20:22.269Z,100378.72
2023-08-11T20:24:44.161Z,100387.63
2023-08-11T20:29:08.018Z,100388.59
2023-08-11T20:33:29.888Z,100390.63
2023-08-11T20:37:55.591Z,100375.75
2023-08-11T20:42:17.723Z,100395.09
2023-08-11T20:46:41.110Z,100406.78
2023-08-11T20:51:05.227Z,100412.81
2023-08-11T20:55:28.579Z,100411.38
2023-08-11T20:59:50.974Z,100410.63
2023-08-11T21:04:15.063Z,100422.91
2023-08-11T21:08:45.691Z,100426.75
2023-08-11T21:13:08.309Z,100422.69
2023-08-11T21:17:30.483Z,100428.72
2023-08-11T21:21:54.180Z,100435.78
2023-08-11T21:26:15.992Z,100439.81
2023-08-11T21:30:39.207Z,100443.75
2023-08-11T21:35:01.067Z,100434.25
2023-08-11T21:39:24.184Z,100441.63
2023-08-11T21:43:46.312Z,100437.59
2023-08-11T21:48:08.372Z,100463.56
2023-08-11T21:52:30.485Z,100472.97
2023-08-11T21:56:54.799Z,100471.44
2023-08-11T22:01:17.103Z,100479.09
2023-08-11T22:05:39.218Z,100483.69
2023-08-11T22:10:01.346Z,100479.63
2023-08-11T22:14:24.544Z,100497.66
2023-08-11T22:18:46.737Z,100515.19
2023-08-11T22:23:08.555Z,100521.75
2023-08-11T22:27:30.640Z,100540.22
2023-08-11T22:31:53.794Z,100514.47
2023-08-11T22:36:15.821Z,100490.59
2023-08-11T22:40:38.307Z,100480.09
2023-08-11T22:45:00.405Z,100486.13
2023-08-11T22:49:23.556Z,100490.66
2023-08-11T22:53:45.649Z,100482.38
2023-08-11T22:58:07.430Z,100489.56
2023-08-11T23:02:29.480Z,100483.56
2023-08-11T23:06:52.666Z,100486.34
2023-08-11T23:11:16.010Z,100469.59
2023-08-11T23:15:37.817Z,100464.50
2023-08-11T23:20:00.292Z,100474.94
2023-08-11T23:24:23.632Z,100485.53
2023-08-11T23:28:45.431Z,100486.88
2023-08-11T23:33:07.357Z,100481.09
2023-08-11T23:37:29.166Z,100484.59
2023-08-11T23:41:52.329Z,100485.91
2023-08-11T23:46:14.201Z,100482.53
2023-08-11T23:50:36.069Z,100473.91
2023-08-11T23:54:58.066Z,100463.28
2023-08-11T23:59:21.167Z,100467.59
